Strona główna
METAR-TAF:

METAR-TAF

Lotnisko :

Vilhena, Rondônia, Brazylia

Szerokość geograficzna: 12-42S, Długość geograficzna: 060-06W, wysokość: 612 m

Aktualna obserwacja pogody

Raport powstał 11 godziny i 23 minut temu, godzina 23:00 UTC
Wiatr 7 kt od południowy zachód
Temperatura 22°C
Wilgotność 94%
Ciśnienie 1018 hPa
Widzialność: 7000 m
Przerywane chmury na wysokości 400 ft

METAR: SBVH 062300Z 22007KT 7000 BKN004 22/21 Q1018

czas: 06:23 (10:23 UTC)

Prognoza

Raport powstał 7 godziny i 23 minut temu, godzina 03:00 UTC
Prognoza ważna od 07 godzina 06 UTC do 07 godzina 18 UTC
Wiatr 7 kt od północny wschód
Widzialność 10 km lub więcej
Rozproszone chmury na wysokości 2000 ft
Przejściowo
od 07 godzina 14 UTC do 07 godzina 18 UTC
Widzialność: 8000 m
Rozproszone chmury na wysokości 2000 ft
Mało chmury na wysokości 2500 ft, Cumulusy wypiętrznone.
przelotny opad deszczu

TAF: SBVH 070300Z 0706/0718 05007KT 9999 SCT020 TN24/0711Z TX30/0717Z TEMPO 0714/0718 8000 SHRA SCT020 FEW025TCU RMK PDV

Obserwacja i prognoza pogody dla ponad 4000 lotnisk (raport METAR i TAF).

Dostępne stacje oznaczono żółtymi i czerwonymi punktami na mapie.

Najedź kursorem aby zobaczyć nazwę stacji.

Kliknij aby zobaczyć obserwacje i prognozy pogody.

Aby zmienić mapę: kliknij na zielony przycisk z czarnym krzyżykiem, aby powiększyć; na zielony przycisk z myślnikiem, aby pomniejszyć; na zielone strzałki, aby przejść do map sąsiednich.


METAR-TAF: